createdAt,value
2019-03-31T00:01:16.071Z,10.70
2019-03-31T00:03:44.849Z,10.60
2019-03-31T00:06:13.701Z,10.60
2019-03-31T00:08:42.887Z,10.40
2019-03-31T00:11:11.742Z,10.30
2019-03-31T00:13:40.579Z,10.40
2019-03-31T00:16:09.370Z,10.50
2019-03-31T00:18:38.145Z,10.40
2019-03-31T00:21:07.235Z,10.50
2019-03-31T00:23:36.103Z,10.50
2019-03-31T00:26:04.893Z,10.40
2019-03-31T00:28:34.026Z,10.20
2019-03-31T00:31:02.823Z,10.00
2019-03-31T00:33:31.590Z,9.80
2019-03-31T00:36:00.370Z,9.60
2019-03-31T00:38:29.243Z,9.70
2019-03-31T00:40:58.021Z,9.90
2019-03-31T00:43:26.788Z,9.90
2019-03-31T00:45:55.582Z,9.80
2019-03-31T00:48:24.351Z,9.80
2019-03-31T00:50:53.140Z,9.80
2019-03-31T00:53:22.017Z,9.80
2019-03-31T00:55:51.105Z,9.80
2019-03-31T00:58:19.893Z,10.00
2019-03-31T01:00:50.648Z,10.10
2019-03-31T01:03:19.489Z,9.90
2019-03-31T01:05:48.252Z,9.80
2019-03-31T01:08:17.899Z,9.80
2019-03-31T01:10:46.666Z,9.70
2019-03-31T01:13:15.440Z,9.80
2019-03-31T01:15:44.252Z,9.70
2019-03-31T01:18:13.036Z,9.90
2019-03-31T01:20:42.273Z,9.70
2019-03-31T01:23:11.146Z,9.80
2019-03-31T01:25:40.059Z,9.80
2019-03-31T01:28:08.898Z,9.90
2019-03-31T01:30:37.703Z,9.90
2019-03-31T01:33:06.481Z,9.90
2019-03-31T01:35:35.247Z,9.80
2019-03-31T01:38:04.062Z,9.80
2019-03-31T01:40:32.914Z,9.70
2019-03-31T01:43:01.748Z,9.60
2019-03-31T01:45:30.556Z,9.60
2019-03-31T01:47:59.319Z,9.50
2019-03-31T01:50:28.151Z,9.50
2019-03-31T01:52:56.961Z,9.30
2019-03-31T01:55:25.748Z,9.10
2019-03-31T01:57:54.867Z,9.10
2019-03-31T02:00:25.604Z,9.10
2019-03-31T02:02:54.793Z,9.10
2019-03-31T02:05:23.562Z,9.10
2019-03-31T02:07:52.686Z,9.20
2019-03-31T02:10:21.776Z,9.10
2019-03-31T02:12:50.558Z,9.10
2019-03-31T02:15:19.375Z,9.10
2019-03-31T02:17:48.136Z,9.20
2019-03-31T02:20:16.924Z,9.30
2019-03-31T02:22:45.733Z,9.30
2019-03-31T02:25:14.509Z,9.30
2019-03-31T02:27:43.295Z,9.30
2019-03-31T02:30:12.170Z,9.40
2019-03-31T02:32:41.313Z,9.40
2019-03-31T02:35:10.160Z,9.30
2019-03-31T02:37:38.976Z,9.30
2019-03-31T02:40:07.739Z,9.20
2019-03-31T02:42:36.508Z,9.30
2019-03-31T02:45:07.354Z,9.40
2019-03-31T02:47:36.198Z,9.40
2019-03-31T02:50:06.209Z,9.40
2019-03-31T02:52:35.019Z,9.40
2019-03-31T02:55:03.866Z,9.20
2019-03-31T02:57:32.704Z,9.10
2019-03-31T03:00:01.507Z,9.00
2019-03-31T03:02:41.566Z,9.00
2019-03-31T03:05:17.859Z,9.20
2019-03-31T03:07:31.355Z,9.30
2019-03-31T03:10:00.630Z,9.30
2019-03-31T03:12:30.537Z,9.20
2019-03-31T03:15:00.676Z,9.30
2019-03-31T03:17:29.465Z,9.30
2019-03-31T03:19:58.311Z,9.40
2019-03-31T03:22:27.116Z,9.30
2019-03-31T03:24:55.891Z,9.30
2019-03-31T03:27:24.753Z,9.10
2019-03-31T03:29:53.606Z,9.10
2019-03-31T03:32:22.503Z,9.00
2019-03-31T03:34:51.631Z,8.90
2019-03-31T03:37:20.450Z,9.10
2019-03-31T03:39:49.577Z,9.20
2019-03-31T03:42:18.370Z,9.30
2019-03-31T03:44:47.174Z,9.20
2019-03-31T03:47:15.962Z,9.10
2019-03-31T03:49:45.135Z,9.00
2019-03-31T03:52:13.921Z,8.90
2019-03-31T03:54:42.692Z,9.00
2019-03-31T03:57:11.470Z,8.90
2019-03-31T03:59:40.297Z,8.90
2019-03-31T04:02:09.130Z,8.80
2019-03-31T04:04:37.988Z,8.70
2019-03-31T04:07:07.197Z,8.70
2019-03-31T04:09:35.995Z,8.80
2019-03-31T04:12:04.851Z,8.80
2019-03-31T04:14:33.714Z,8.80
2019-03-31T04:17:02.493Z,8.90
2019-03-31T04:19:31.271Z,9.00
2019-03-31T04:22:00.067Z,9.00
2019-03-31T04:24:28.917Z,8.80
2019-03-31T04:26:57.764Z,8.70
2019-03-31T04:29:26.585Z,8.70
2019-03-31T04:31:55.374Z,8.70
2019-03-31T04:34:24.201Z,8.70
2019-03-31T04:36:53.056Z,8.80
2019-03-31T04:39:21.832Z,8.80
2019-03-31T04:41:50.953Z,8.80
2019-03-31T04:44:19.842Z,8.80
2019-03-31T04:46:48.702Z,8.70
2019-03-31T04:49:17.858Z,8.50
2019-03-31T04:51:46.742Z,8.40
2019-03-31T04:54:15.517Z,8.40
2019-03-31T04:56:44.308Z,8.50
2019-03-31T04:59:13.176Z,8.50
2019-03-31T05:01:41.939Z,8.40
2019-03-31T05:04:10.749Z,8.20
2019-03-31T05:06:39.631Z,8.10
2019-03-31T05:09:08.407Z,8.10
2019-03-31T05:11:37.180Z,8.20
2019-03-31T05:14:05.990Z,8.30
2019-03-31T05:16:34.840Z,8.30
2019-03-31T05:19:03.626Z,8.20
2019-03-31T05:21:32.436Z,8.00
2019-03-31T05:24:01.289Z,8.00
2019-03-31T05:26:30.053Z,8.20
2019-03-31T05:28:58.877Z,8.30
2019-03-31T05:31:27.661Z,8.40
2019-03-31T05:33:56.430Z,8.50
2019-03-31T05:36:25.243Z,8.60
2019-03-31T05:38:54.023Z,8.60
2019-03-31T05:41:22.860Z,8.70
2019-03-31T05:44:04.840Z,8.80
2019-03-31T05:46:22.139Z,8.70
2019-03-31T05:48:56.736Z,8.60
2019-03-31T05:51:25.577Z,8.80
2019-03-31T05:53:54.343Z,8.70
2019-03-31T05:56:23.197Z,8.80
2019-03-31T05:58:52.033Z,8.80
2019-03-31T06:01:20.793Z,8.90
2019-03-31T06:03:49.587Z,9.10
2019-03-31T06:06:19.327Z,9.10
2019-03-31T06:08:48.181Z,9.20
2019-03-31T06:11:16.989Z,9.40
2019-03-31T06:13:46.132Z,9.60
2019-03-31T06:16:14.980Z,9.80
2019-03-31T06:18:43.829Z,9.90
2019-03-31T06:21:12.677Z,10.00
2019-03-31T06:23:41.466Z,10.10
2019-03-31T06:26:10.262Z,10.20
2019-03-31T06:28:39.117Z,10.30
2019-03-31T06:31:07.886Z,10.40
2019-03-31T06:33:36.698Z,10.40
2019-03-31T06:36:05.494Z,10.30
2019-03-31T06:38:34.625Z,10.40
2019-03-31T06:41:03.902Z,10.80
2019-03-31T06:43:32.685Z,11.00
2019-03-31T06:46:01.867Z,11.40
2019-03-31T06:48:30.775Z,11.80
2019-03-31T06:50:59.631Z,12.20
2019-03-31T06:53:28.419Z,12.20
2019-03-31T06:55:57.301Z,12.10
2019-03-31T06:58:26.086Z,12.30
2019-03-31T07:00:54.868Z,12.30
2019-03-31T07:03:23.692Z,12.40
2019-03-31T07:05:52.541Z,12.60
2019-03-31T07:08:21.345Z,12.80
2019-03-31T07:10:50.154Z,12.90
2019-03-31T07:13:18.920Z,12.90
2019-03-31T07:15:47.697Z,12.80
2019-03-31T07:18:16.536Z,12.80
2019-03-31T07:20:45.348Z,12.70
2019-03-31T07:23:14.202Z,12.70
2019-03-31T07:25:43.086Z,12.50
2019-03-31T07:28:11.875Z,12.30
2019-03-31T07:30:40.747Z,12.20
2019-03-31T07:33:09.888Z,12.00
2019-03-31T07:35:39.095Z,12.00
2019-03-31T07:38:08.218Z,11.90
2019-03-31T07:40:37.061Z,11.60
2019-03-31T07:43:06.047Z,11.70
2019-03-31T07:45:34.954Z,11.80
2019-03-31T07:48:03.786Z,11.70
2019-03-31T07:50:32.626Z,11.80
2019-03-31T07:53:01.504Z,11.60
2019-03-31T07:55:30.360Z,11.60
2019-03-31T07:57:59.152Z,11.70
2019-03-31T08:00:28.013Z,11.80
2019-03-31T08:03:00.030Z,11.90
2019-03-31T08:05:33.263Z,11.90
2019-03-31T08:07:58.140Z,11.80
2019-03-31T08:10:27.008Z,11.80
2019-03-31T08:12:55.776Z,11.80
2019-03-31T08:15:24.913Z,11.80
2019-03-31T08:17:53.771Z,11.60
2019-03-31T08:20:22.559Z,11.40
2019-03-31T08:22:51.344Z,11.50
2019-03-31T08:25:22.111Z,11.40
2019-03-31T08:27:50.883Z,11.30
2019-03-31T08:30:19.668Z,11.30
2019-03-31T08:32:48.484Z,11.30
2019-03-31T08:35:17.692Z,11.30
2019-03-31T08:37:46.469Z,11.50
2019-03-31T08:40:15.306Z,11.40
2019-03-31T08:42:44.153Z,11.20
2019-03-31T08:45:12.937Z,11.20
2019-03-31T08:47:41.750Z,11.30
2019-03-31T08:50:12.574Z,11.20
2019-03-31T08:52:41.439Z,11.10
2019-03-31T08:55:10.300Z,11.10
2019-03-31T08:57:39.094Z,11.10
2019-03-31T09:00:10.944Z,11.00
2019-03-31T09:02:39.767Z,10.80
2019-03-31T09:05:09.028Z,10.70
2019-03-31T09:07:37.946Z,10.60
2019-03-31T09:10:09.356Z,10.70
2019-03-31T09:12:38.496Z,10.70
2019-03-31T09:15:08.717Z,10.90
2019-03-31T09:17:37.876Z,10.90
2019-03-31T09:20:07.485Z,11.00
2019-03-31T09:22:36.332Z,11.00
2019-03-31T09:25:05.983Z,11.00
2019-03-31T09:27:34.754Z,11.00
2019-03-31T09:30:06.952Z,11.00
2019-03-31T09:32:35.822Z,11.10
2019-03-31T09:35:07.157Z,11.20
2019-03-31T09:37:36.406Z,11.20
2019-03-31T09:40:06.647Z,11.30
2019-03-31T09:42:35.910Z,11.40
2019-03-31T09:45:06.340Z,11.30
2019-03-31T09:47:35.518Z,11.30
2019-03-31T09:50:07.601Z,11.40
2019-03-31T09:52:36.417Z,11.50
2019-03-31T09:55:07.179Z,11.70
2019-03-31T09:57:35.952Z,11.70
2019-03-31T10:00:12.772Z,11.60
2019-03-31T10:02:41.623Z,11.80
2019-03-31T10:05:10.416Z,11.90
2019-03-31T10:07:39.275Z,12.00
2019-03-31T10:10:09.513Z,12.20
2019-03-31T10:12:38.289Z,12.60
2019-03-31T10:15:07.726Z,12.40
2019-03-31T10:17:36.555Z,12.60
2019-03-31T10:20:05.976Z,12.80
2019-03-31T10:22:34.837Z,13.00
2019-03-31T10:25:06.092Z,13.30
2019-03-31T10:27:34.935Z,13.40
2019-03-31T10:30:05.628Z,13.60
2019-03-31T10:32:34.432Z,13.70
2019-03-31T10:35:03.882Z,13.90
2019-03-31T10:37:32.665Z,14.20
2019-03-31T10:40:01.535Z,14.60
2019-03-31T10:42:30.612Z,14.70
2019-03-31T10:44:59.403Z,15.60
2019-03-31T10:47:28.214Z,16.20
2019-03-31T10:49:57.130Z,15.50
2019-03-31T10:52:25.899Z,15.20
2019-03-31T10:54:54.706Z,15.00
2019-03-31T10:57:23.493Z,14.80
2019-03-31T10:59:52.335Z,14.60
2019-03-31T11:02:21.166Z,14.30
2019-03-31T11:04:50.000Z,14.10
2019-03-31T11:07:18.839Z,14.10
2019-03-31T11:09:47.717Z,14.10
2019-03-31T11:12:16.565Z,14.10
2019-03-31T11:14:45.356Z,14.30
2019-03-31T11:17:14.498Z,14.40
2019-03-31T11:19:43.284Z,14.20
2019-03-31T11:22:13.766Z,14.10
2019-03-31T11:24:42.644Z,14.30
2019-03-31T11:27:11.418Z,14.60
2019-03-31T11:29:40.195Z,14.40
2019-03-31T11:32:09.004Z,14.50
2019-03-31T11:34:37.807Z,14.70
2019-03-31T11:37:13.441Z,14.80
2019-03-31T11:39:37.246Z,14.50
2019-03-31T11:42:06.090Z,14.50
2019-03-31T11:44:34.867Z,14.80
2019-03-31T11:47:03.801Z,15.40
2019-03-31T11:49:32.858Z,15.80
2019-03-31T11:52:01.672Z,16.00
2019-03-31T11:54:30.546Z,15.80
2019-03-31T11:56:59.323Z,15.80
2019-03-31T11:59:28.098Z,16.10
2019-03-31T12:01:57.243Z,17.00
2019-03-31T12:04:26.087Z,17.50
2019-03-31T12:06:54.964Z,17.70
2019-03-31T12:09:23.823Z,17.30
2019-03-31T12:11:52.605Z,17.10
2019-03-31T12:14:21.482Z,17.00
2019-03-31T12:16:50.275Z,17.10
2019-03-31T12:19:19.361Z,16.80
2019-03-31T12:21:48.135Z,17.00
2019-03-31T12:24:16.947Z,17.10
2019-03-31T12:26:46.042Z,17.40
2019-03-31T12:29:14.902Z,17.30
2019-03-31T12:31:43.708Z,16.90
2019-03-31T12:34:12.490Z,17.10
2019-03-31T12:36:41.269Z,17.60
2019-03-31T12:39:10.107Z,17.90
2019-03-31T12:41:38.969Z,18.70
2019-03-31T12:44:07.819Z,19.00
2019-03-31T12:46:36.637Z,18.90
2019-03-31T12:49:05.422Z,19.10
2019-03-31T12:51:34.202Z,19.80
2019-03-31T12:54:03.070Z,20.30
2019-03-31T12:56:31.857Z,20.20
2019-03-31T12:59:00.714Z,19.90
2019-03-31T13:01:29.536Z,19.30
2019-03-31T13:03:58.716Z,18.90
2019-03-31T13:06:27.567Z,18.70
2019-03-31T13:08:56.368Z,18.40
2019-03-31T13:11:25.143Z,18.30
2019-03-31T13:13:53.929Z,18.10
2019-03-31T13:16:22.806Z,18.20
2019-03-31T13:18:52.146Z,17.80
2019-03-31T13:21:20.996Z,17.60
2019-03-31T13:23:49.799Z,17.40
2019-03-31T13:26:18.574Z,17.50
2019-03-31T13:28:47.359Z,17.70
2019-03-31T13:31:16.160Z,17.60
2019-03-31T13:33:45.335Z,17.30
2019-03-31T13:36:14.167Z,17.60
2019-03-31T13:38:43.262Z,18.60
2019-03-31T13:41:12.114Z,19.30
2019-03-31T13:43:40.985Z,19.70
2019-03-31T13:46:09.877Z,20.50
2019-03-31T13:48:38.663Z,20.90
2019-03-31T13:51:07.431Z,21.30
2019-03-31T13:53:36.247Z,21.30
2019-03-31T13:56:05.458Z,21.00
2019-03-31T13:58:38.665Z,21.00
2019-03-31T14:01:07.418Z,20.50
2019-03-31T14:03:36.422Z,20.20
2019-03-31T14:06:06.113Z,20.00
2019-03-31T14:08:34.973Z,19.50
2019-03-31T14:11:03.825Z,19.30
2019-03-31T14:13:32.910Z,19.10
2019-03-31T14:16:01.714Z,19.00
2019-03-31T14:18:30.483Z,18.50
2019-03-31T14:20:59.347Z,18.70
2019-03-31T14:23:28.703Z,18.80
2019-03-31T14:25:58.014Z,18.70
2019-03-31T14:28:29.295Z,18.80
2019-03-31T14:30:58.787Z,18.70
2019-03-31T14:33:27.995Z,18.70
2019-03-31T14:35:57.383Z,18.50
2019-03-31T14:38:39.403Z,18.20
2019-03-31T14:40:57.690Z,18.10
2019-03-31T14:43:48.903Z,18.10
2019-03-31T14:46:19.607Z,17.60
2019-03-31T14:48:48.227Z,17.40
2019-03-31T14:51:17.342Z,17.40
2019-03-31T14:53:46.201Z,17.10
2019-03-31T14:56:15.038Z,17.30
2019-03-31T14:58:43.867Z,17.20
2019-03-31T15:01:12.718Z,17.30
2019-03-31T15:03:41.573Z,17.20
2019-03-31T15:06:10.406Z,17.20
2019-03-31T15:08:53.533Z,17.30
2019-03-31T15:11:09.712Z,17.20
2019-03-31T15:13:38.599Z,17.40
2019-03-31T15:16:07.461Z,17.60
2019-03-31T15:18:36.264Z,17.70
2019-03-31T15:21:05.121Z,17.70
2019-03-31T15:23:34.111Z,17.60
2019-03-31T15:26:03.354Z,17.80
2019-03-31T15:28:32.268Z,17.90
2019-03-31T15:31:01.116Z,17.50
2019-03-31T15:33:29.898Z,17.30
2019-03-31T15:35:58.718Z,17.30
2019-03-31T15:38:27.511Z,17.20
2019-03-31T15:40:56.363Z,17.10
2019-03-31T15:43:26.031Z,17.10
2019-03-31T15:45:54.823Z,16.70
2019-03-31T15:48:23.682Z,16.50
2019-03-31T15:50:52.496Z,16.70
2019-03-31T15:53:21.279Z,16.40
2019-03-31T15:55:50.063Z,16.40
2019-03-31T15:58:20.915Z,16.30
2019-03-31T16:00:49.761Z,16.20
2019-03-31T16:03:18.616Z,16.10
2019-03-31T16:05:47.428Z,16.10
2019-03-31T16:08:16.207Z,16.10
2019-03-31T16:10:45.004Z,16.20
2019-03-31T16:13:13.902Z,16.10
2019-03-31T16:15:42.758Z,16.00
2019-03-31T16:18:11.604Z,16.10
2019-03-31T16:20:40.403Z,16.10
2019-03-31T16:23:09.262Z,15.90
2019-03-31T16:25:39.685Z,15.70
2019-03-31T16:28:08.497Z,15.50
2019-03-31T16:30:37.846Z,15.10
2019-03-31T16:33:07.174Z,14.90
2019-03-31T16:35:36.307Z,14.80
2019-03-31T16:38:05.092Z,14.80
2019-03-31T16:40:33.874Z,14.70
2019-03-31T16:43:02.675Z,14.80
2019-03-31T16:45:31.793Z,14.90
2019-03-31T16:48:00.575Z,14.70
2019-03-31T16:50:29.437Z,14.60
2019-03-31T16:52:58.286Z,14.40
2019-03-31T16:55:27.054Z,14.30
2019-03-31T16:57:56.204Z,14.20
2019-03-31T17:00:24.996Z,14.10
2019-03-31T17:02:53.778Z,14.00
2019-03-31T17:05:22.768Z,13.80
2019-03-31T17:07:51.631Z,13.90
2019-03-31T17:10:20.475Z,13.80
2019-03-31T17:12:49.350Z,13.70
2019-03-31T17:15:18.505Z,13.70
2019-03-31T17:17:47.619Z,13.70
2019-03-31T17:20:16.492Z,13.70
2019-03-31T17:22:45.269Z,13.60
2019-03-31T17:25:14.394Z,13.50
2019-03-31T17:27:43.278Z,13.40
2019-03-31T17:30:12.061Z,13.30
2019-03-31T17:32:40.847Z,13.30
2019-03-31T17:35:09.720Z,13.20
2019-03-31T17:37:38.495Z,13.20
2019-03-31T17:40:07.755Z,13.00
2019-03-31T17:42:36.654Z,13.00
2019-03-31T17:45:07.141Z,12.90
2019-03-31T17:47:36.582Z,12.90
2019-03-31T17:50:05.651Z,12.80
2019-03-31T17:52:34.429Z,12.80
2019-03-31T17:55:04.221Z,12.70
2019-03-31T17:57:33.025Z,12.70
2019-03-31T18:00:01.825Z,12.60
2019-03-31T18:02:30.593Z,12.60
2019-03-31T18:04:59.437Z,12.40
2019-03-31T18:07:28.274Z,12.30
2019-03-31T18:09:57.056Z,12.30
2019-03-31T18:12:25.883Z,12.20
2019-03-31T18:14:54.662Z,12.20
2019-03-31T18:17:23.441Z,12.10
2019-03-31T18:19:52.250Z,12.10
2019-03-31T18:22:21.046Z,12.00
2019-03-31T18:24:49.817Z,11.90
2019-03-31T18:27:18.627Z,11.90
2019-03-31T18:29:47.406Z,11.80
2019-03-31T18:32:16.193Z,11.80
2019-03-31T18:34:45.008Z,11.70
2019-03-31T18:37:13.852Z,11.60
2019-03-31T18:39:42.993Z,11.60
2019-03-31T18:42:11.870Z,11.60
2019-03-31T18:44:40.647Z,11.60
2019-03-31T18:47:09.780Z,11.60
2019-03-31T18:49:38.652Z,11.60
2019-03-31T18:52:07.415Z,11.60
2019-03-31T18:54:53.931Z,11.60
2019-03-31T18:57:30.377Z,11.50
2019-03-31T19:00:09.706Z,11.40
2019-03-31T19:02:56.599Z,11.30
2019-03-31T19:05:36.158Z,11.20
2019-03-31T19:08:15.970Z,11.20
2019-03-31T19:10:49.730Z,11.20
2019-03-31T19:13:34.984Z,11.10
2019-03-31T19:16:15.349Z,11.10
2019-03-31T19:19:04.025Z,11.10
2019-03-31T19:21:34.468Z,11.00
2019-03-31T19:24:10.978Z,11.00
2019-03-31T19:26:48.611Z,11.00
2019-03-31T19:29:32.148Z,11.00
2019-03-31T19:32:02.589Z,10.90
2019-03-31T19:34:33.078Z,10.90
2019-03-31T19:37:12.610Z,10.80
2019-03-31T19:40:01.667Z,10.80
2019-03-31T19:42:32.085Z,10.80
2019-03-31T19:45:18.603Z,10.70
2019-03-31T19:47:58.141Z,10.70
2019-03-31T19:50:46.686Z,10.70
2019-03-31T19:53:35.786Z,10.70
2019-03-31T19:56:22.184Z,10.70
2019-03-31T19:58:52.640Z,10.70
2019-03-31T20:01:34.750Z,10.60
2019-03-31T20:04:23.457Z,10.70
2019-03-31T20:06:56.469Z,10.60
2019-03-31T20:09:43.387Z,10.50
2019-03-31T20:12:13.803Z,10.40
2019-03-31T20:15:00.632Z,10.40
2019-03-31T20:17:31.111Z,10.40
2019-03-31T20:20:19.613Z,10.30
2019-03-31T20:22:53.074Z,10.30
2019-03-31T20:25:23.556Z,10.30
2019-03-31T20:27:59.826Z,10.20
2019-03-31T20:30:42.356Z,10.20
2019-03-31T20:33:18.749Z,10.10
2019-03-31T20:35:52.093Z,10.10
2019-03-31T20:38:38.855Z,10.10
2019-03-31T20:41:09.327Z,10.00
2019-03-31T20:43:42.797Z,9.90
2019-03-31T20:46:11.598Z,9.80
2019-03-31T20:48:40.430Z,9.70
2019-03-31T20:51:09.214Z,9.70
2019-03-31T20:53:38.014Z,9.60
2019-03-31T20:56:06.822Z,9.50
2019-03-31T20:58:35.652Z,9.50
2019-03-31T21:01:04.482Z,9.50
2019-03-31T21:03:33.271Z,9.40
2019-03-31T21:06:02.142Z,9.50
2019-03-31T21:08:30.974Z,9.40
2019-03-31T21:10:59.827Z,9.50
2019-03-31T21:13:28.598Z,9.50
2019-03-31T21:15:57.465Z,9.50
2019-03-31T21:18:26.238Z,9.40
2019-03-31T21:20:55.010Z,9.40
2019-03-31T21:23:23.897Z,9.40
2019-03-31T21:25:52.656Z,9.40
2019-03-31T21:28:21.755Z,9.30
2019-03-31T21:30:50.624Z,9.10
2019-03-31T21:33:19.470Z,9.00
2019-03-31T21:35:48.658Z,8.90
2019-03-31T21:38:18.218Z,8.90
2019-03-31T21:40:46.993Z,8.90
2019-03-31T21:43:15.761Z,8.80
2019-03-31T21:45:45.796Z,8.80
2019-03-31T21:48:14.572Z,8.80
2019-03-31T21:50:43.331Z,8.80
2019-03-31T21:53:12.144Z,8.80
2019-03-31T21:55:40.934Z,8.80
2019-03-31T21:58:09.760Z,8.80
2019-03-31T22:00:51.755Z,8.80
2019-03-31T22:03:20.591Z,8.80
2019-03-31T22:05:49.430Z,8.70
2019-03-31T22:08:18.661Z,8.70
2019-03-31T22:10:47.518Z,8.70
2019-03-31T22:13:16.360Z,8.70
2019-03-31T22:15:45.162Z,8.70
2019-03-31T22:18:14.014Z,8.70
2019-03-31T22:20:42.776Z,8.60
2019-03-31T22:23:11.622Z,8.60
2019-03-31T22:25:40.418Z,8.60
2019-03-31T22:28:09.201Z,8.60
2019-03-31T22:30:38.059Z,8.60
2019-03-31T22:33:06.833Z,8.60
2019-03-31T22:35:35.595Z,8.60
2019-03-31T22:38:04.399Z,8.60
2019-03-31T22:40:33.220Z,8.60
2019-03-31T22:43:01.998Z,8.60
2019-03-31T22:45:30.806Z,8.50
2019-03-31T22:47:59.904Z,8.50
2019-03-31T22:50:28.756Z,8.40
2019-03-31T22:52:57.556Z,8.30
2019-03-31T22:55:26.334Z,8.20
2019-03-31T22:57:55.120Z,8.20
2019-03-31T23:00:27.661Z,8.10
2019-03-31T23:02:56.508Z,8.10
2019-03-31T23:05:25.353Z,8.10
2019-03-31T23:07:54.139Z,8.10
2019-03-31T23:10:22.903Z,8.10
2019-03-31T23:12:51.999Z,8.10
2019-03-31T23:15:20.786Z,8.10
2019-03-31T23:17:49.562Z,8.00
2019-03-31T23:20:18.394Z,8.00
2019-03-31T23:22:47.202Z,7.90
2019-03-31T23:25:15.963Z,7.90
2019-03-31T23:27:44.743Z,7.90
2019-03-31T23:30:13.833Z,7.90
2019-03-31T23:32:42.671Z,7.80
2019-03-31T23:35:11.445Z,7.80
2019-03-31T23:37:40.239Z,7.80
2019-03-31T23:40:09.006Z,7.80
2019-03-31T23:42:37.776Z,7.80
2019-03-31T23:45:06.628Z,7.70
2019-03-31T23:47:35.406Z,7.70
2019-03-31T23:50:04.896Z,7.60
2019-03-31T23:52:33.716Z,7.70
2019-03-31T23:55:02.490Z,7.60
2019-03-31T23:57:41.821Z,7.60
